Back to Top

Language: 

My Weather Underground Personal Weather Station Historical Data with Graphs...

Delerius Weather Station Historical Data
Daily Summary for September 23, 2017 Units:  English    Metric   Both
« Previous Day
Next Day »
Daily Weekly Monthly Yearly Custom
  High: Low: Average:
Temperature: 61.9 °F 52.2 °F 57.6 °F
Dew Point: 57.8 °F 50.4 °F 54.4 °F
Humidity: 96 % 82 % 89 %
Wind Speed: 9.0 mph 0.0 mph 4.4 mph
Wind Gust: 16.0 mph - -
Wind:- - SSE
Pressure: 30.13 in 30.08 in -
Precipitation: 0.00 in    
Historical Graphs
 
 
Tabular Data for September 23, 2017
Time Temperature Dew Point Pressure Wind Wind Speed Wind Gust Humidity Rainfall Rate (Hourly) solar Conditions
00:02 55.2 °F 52.3 °F 30.09 in SSW 9.0 mph 14.0 mph 90 % 0.00 in 0 W/m2
00:07 55.2 °F 52.3 °F 30.09 in SSW 9.0 mph 14.0 mph 90 % 0.00 in 0 W/m2
00:12 55.2 °F 52.3 °F 30.09 in SSW 8.0 mph 14.0 mph 90 % 0.00 in 0 W/m2
00:17 55.2 °F 52.3 °F 30.09 in SSW 8.0 mph 14.0 mph 90 % 0.00 in 0 W/m2
00:22 55.2 °F 52.3 °F 30.09 in SSW 8.0 mph 16.0 mph 90 % 0.00 in 0 W/m2
00:27 55.2 °F 52.3 °F 30.09 in SSW 7.0 mph 16.0 mph 90 % 0.00 in 0 W/m2
00:32 55.0 °F 52.2 °F 30.09 in South 7.0 mph 12.0 mph 90 % 0.00 in 0 W/m2
00:34 55.0 °F 52.2 °F 30.09 in South 8.0 mph 13.0 mph 90 % 0.00 in 0 W/m2
00:39 55.2 °F 52.6 °F 30.09 in SSW 9.0 mph 15.0 mph 91 % 0.00 in 0 W/m2
00:44 55.2 °F 52.6 °F 30.09 in SSW 9.0 mph 15.0 mph 91 % 0.00 in 0 W/m2
00:49 55.2 °F 52.3 °F 30.09 in SSW 8.0 mph 14.0 mph 90 % 0.00 in 0 W/m2
00:54 55.2 °F 52.3 °F 30.09 in SSW 8.0 mph 13.0 mph 90 % 0.00 in 0 W/m2
00:59 55.2 °F 52.3 °F 30.09 in SSW 8.0 mph 13.0 mph 90 % 0.00 in 0 W/m2
01:04 55.2 °F 52.3 °F 30.08 in SSW 8.0 mph 13.0 mph 90 % 0.00 in 0 W/m2
01:09 55.0 °F 52.5 °F 30.09 in SSW 7.0 mph 13.0 mph 91 % 0.00 in 0 W/m2
01:15 55.2 °F 52.6 °F 30.08 in SSW 7.0 mph 13.0 mph 91 % 0.00 in 0 W/m2
01:20 55.0 °F 52.5 °F 30.08 in South 7.0 mph 13.0 mph 91 % 0.00 in 0 W/m2
01:25 55.0 °F 52.5 °F 30.09 in South 6.0 mph 11.0 mph 91 % 0.00 in 0 W/m2
01:30 55.0 °F 52.5 °F 30.09 in South 6.0 mph 9.0 mph 91 % 0.00 in 0 W/m2
01:35 55.0 °F 52.5 °F 30.09 in South 5.0 mph 10.0 mph 91 % 0.00 in 0 W/m2
01:40 55.0 °F 52.5 °F 30.09 in South 5.0 mph 10.0 mph 91 % 0.00 in 0 W/m2
01:45 55.2 °F 52.6 °F 30.09 in South 6.0 mph 11.0 mph 91 % 0.00 in 0 W/m2
01:50 55.2 °F 52.6 °F 30.09 in South 6.0 mph 11.0 mph 91 % 0.00 in 0 W/m2
01:55 55.2 °F 52.6 °F 30.09 in South 5.0 mph 9.0 mph 91 % 0.00 in 0 W/m2
02:00 55.0 °F 52.5 °F 30.09 in SSE 4.0 mph 9.0 mph 91 % 0.00 in 0 W/m2
02:05 55.0 °F 52.5 °F 30.09 in SSE 4.0 mph 7.0 mph 91 % 0.00 in 0 W/m2
02:10 54.9 °F 52.3 °F 30.09 in SSE 3.0 mph 7.0 mph 91 % 0.00 in 0 W/m2
02:15 54.9 °F 52.6 °F 30.09 in SSE 4.0 mph 8.0 mph 92 % 0.00 in 0 W/m2
02:20 54.9 °F 52.6 °F 30.09 in SSE 5.0 mph 9.0 mph 92 % 0.00 in 0 W/m2
02:25 54.9 °F 52.6 °F 30.09 in South 5.0 mph 9.0 mph 92 % 0.00 in 0 W/m2
02:30 54.9 °F 52.6 °F 30.08 in South 5.0 mph 9.0 mph 92 % 0.00 in 0 W/m2
02:35 55.0 °F 52.8 °F 30.08 in South 5.0 mph 9.0 mph 92 % 0.00 in 0 W/m2
02:40 55.0 °F 52.8 °F 30.08 in South 5.0 mph 9.0 mph 92 % 0.00 in 0 W/m2
02:45 55.0 °F 52.8 °F 30.09 in South 5.0 mph 9.0 mph 92 % 0.00 in 0 W/m2
02:50 55.0 °F 52.8 °F 30.09 in South 5.0 mph 10.0 mph 92 % 0.00 in 0 W/m2
02:55 55.2 °F 52.9 °F 30.09 in South 6.0 mph 10.0 mph 92 % 0.00 in 0 W/m2
03:00 55.2 °F 52.9 °F 30.09 in South 6.0 mph 10.0 mph 92 % 0.00 in 0 W/m2
03:05 55.4 °F 53.1 °F 30.09 in South 4.0 mph 10.0 mph 92 % 0.00 in 0 W/m2
03:10 55.4 °F 53.1 °F 30.09 in South 3.0 mph 6.0 mph 92 % 0.00 in 0 W/m2
03:15 55.4 °F 53.1 °F 30.09 in South 3.0 mph 8.0 mph 92 % 0.00 in 0 W/m2
03:20 55.4 °F 52.8 °F 30.08 in SSE 3.0 mph 8.0 mph 91 % 0.00 in 0 W/m2
03:25 55.2 °F 52.6 °F 30.09 in SSE 3.0 mph 7.0 mph 91 % 0.00 in 0 W/m2
03:30 55.2 °F 52.6 °F 30.08 in SSE 3.0 mph 7.0 mph 91 % 0.00 in 0 W/m2
03:35 55.0 °F 52.8 °F 30.08 in SSE 3.0 mph 7.0 mph 92 % 0.00 in 0 W/m2
03:40 54.9 °F 52.6 °F 30.08 in South 4.0 mph 7.0 mph 92 % 0.00 in 0 W/m2
03:45 54.9 °F 52.6 °F 30.08 in South 4.0 mph 7.0 mph 92 % 0.00 in 0 W/m2
03:50 54.7 °F 52.4 °F 30.08 in SSE 4.0 mph 7.0 mph 92 % 0.00 in 0 W/m2
03:55 54.7 °F 52.4 °F 30.08 in SSE 2.0 mph 6.0 mph 92 % 0.00 in 0 W/m2
04:00 54.3 °F 52.0 °F 30.08 in SSE 1.0 mph 5.0 mph 92 % 0.00 in 0 W/m2
04:05 54.1 °F 51.9 °F 30.08 in SSE 1.0 mph 6.0 mph 92 % 0.00 in 0 W/m2
04:11 54.0 °F 51.7 °F 30.08 in SE 1.0 mph 6.0 mph 92 % 0.00 in 0 W/m2
04:16 53.8 °F 51.5 °F 30.08 in Calm   4.0 mph 92 % 0.00 in 0 W/m2
04:21 53.6 °F 51.3 °F 30.08 in Calm   1.0 mph 92 % 0.00 in 0 W/m2
04:26 53.4 °F 51.4 °F 30.08 in Calm   1.0 mph 93 % 0.00 in 0 W/m2
04:31 53.6 °F 51.6 °F 30.08 in Calm   2.0 mph 93 % 0.00 in 0 W/m2
04:36 53.4 °F 51.4 °F 30.09 in Calm   2.0 mph 93 % 0.00 in 0 W/m2
04:41 53.2 °F 51.3 °F 30.08 in Calm   2.0 mph 93 % 0.00 in 0 W/m2
04:46 53.1 °F 51.1 °F 30.08 in Calm   4.0 mph 93 % 0.00 in 0 W/m2
04:51 53.2 °F 51.6 °F 30.08 in ESE 1.0 mph 4.0 mph 94 % 0.00 in 0 W/m2
04:56 53.1 °F 51.4 °F 30.08 in ESE 1.0 mph 4.0 mph 94 % 0.00 in 0 W/m2
05:01 52.9 °F 50.9 °F 30.08 in Calm   1.0 mph 93 % 0.00 in 0 W/m2
05:06 52.5 °F 50.6 °F 30.08 in Calm   1.0 mph 93 % 0.00 in 0 W/m2
05:11 52.3 °F 50.4 °F 30.08 in Calm   3.0 mph 93 % 0.00 in 0 W/m2
05:16 52.3 °F 50.7 °F 30.08 in Calm   3.0 mph 94 % 0.00 in 0 W/m2
05:21 52.2 °F 50.5 °F 30.08 in Calm   2.0 mph 94 % 0.00 in 0 W/m2
05:26 52.2 °F 50.5 °F 30.08 in WSW 1.0 mph 6.0 mph 94 % 0.00 in 0 W/m2
05:31 52.2 °F 50.5 °F 30.09 in WSW 2.0 mph 7.0 mph 94 % 0.00 in 0 W/m2
05:36 52.3 °F 51.0 °F 30.09 in WSW 2.0 mph 7.0 mph 95 % 0.00 in 0 W/m2
05:41 52.3 °F 51.0 °F 30.09 in SW 1.0 mph 6.0 mph 95 % 0.00 in 0 W/m2
05:47 52.3 °F 50.7 °F 30.09 in Calm   1.0 mph 94 % 0.00 in 0 W/m2
05:52 52.2 °F 50.5 °F 30.09 in Calm     94 % 0.00 in 0 W/m2
05:57 52.2 °F 50.5 °F 30.09 in Calm   4.0 mph 94 % 0.00 in 0 W/m2
06:02 52.2 °F 50.8 °F 30.09 in SSE 1.0 mph 4.0 mph 95 % 0.00 in 0 W/m2
06:07 52.2 °F 50.8 °F 30.09 in SE 2.0 mph 5.0 mph 95 % 0.00 in 0 W/m2
06:12 52.3 °F 51.0 °F 30.09 in ESE 2.0 mph 5.0 mph 95 % 0.00 in 0 W/m2
06:17 52.3 °F 51.0 °F 30.10 in ESE 2.0 mph 5.0 mph 95 % 0.00 in 0 W/m2
06:22 52.3 °F 51.0 °F 30.10 in ESE 2.0 mph 5.0 mph 95 % 0.00 in 0 W/m2
06:27 52.3 °F 51.0 °F 30.10 in ESE 2.0 mph 6.0 mph 95 % 0.00 in 0 W/m2
06:32 52.5 °F 51.1 °F 30.10 in ESE 3.0 mph 6.0 mph 95 % 0.00 in 0 W/m2
06:37 52.5 °F 51.1 °F 30.10 in ESE 3.0 mph 6.0 mph 95 % 0.00 in 0 W/m2
06:42 52.7 °F 51.3 °F 30.10 in ESE 4.0 mph 6.0 mph 95 % 0.00 in 0 W/m2
06:47 52.9 °F 51.8 °F 30.10 in ESE 3.0 mph 6.0 mph 96 % 0.00 in 0 W/m2
06:52 52.7 °F 51.3 °F 30.10 in ESE 2.0 mph 6.0 mph 95 % 0.00 in 5 W/m2
06:57 52.5 °F 51.1 °F 30.10 in SE 1.0 mph 6.0 mph 95 % 0.00 in 7 W/m2
07:02 52.5 °F 51.1 °F 30.10 in SE 2.0 mph 6.0 mph 95 % 0.00 in 11 W/m2
07:07 52.5 °F 51.1 °F 30.10 in SE 2.0 mph 5.0 mph 95 % 0.00 in 16 W/m2
07:12 52.3 °F 51.0 °F 30.10 in SE 3.0 mph 7.0 mph 95 % 0.00 in 21 W/m2
07:17 52.5 °F 51.4 °F 30.11 in SE 5.0 mph 7.0 mph 96 % 0.00 in 25 W/m2
07:22 52.7 °F 51.6 °F 30.10 in SE 5.0 mph 8.0 mph 96 % 0.00 in 28 W/m2
07:27 52.9 °F 51.8 °F 30.10 in SE 5.0 mph 8.0 mph 96 % 0.00 in 35 W/m2
07:32 52.9 °F 51.8 °F 30.10 in SSE 5.0 mph 9.0 mph 96 % 0.00 in 47 W/m2
07:37 53.1 °F 52.0 °F 30.10 in SSE 6.0 mph 9.0 mph 96 % 0.00 in 40 W/m2
07:42 53.2 °F 52.1 °F 30.10 in SSE 5.0 mph 8.0 mph 96 % 0.00 in 49 W/m2
07:47 53.2 °F 52.1 °F 30.11 in SSE 4.0 mph 8.0 mph 96 % 0.00 in 109 W/m2
07:52 53.6 °F 52.5 °F 30.10 in South 4.0 mph 9.0 mph 96 % 0.00 in 114 W/m2
07:57 54.0 °F 52.8 °F 30.11 in South 4.0 mph 9.0 mph 96 % 0.00 in 113 W/m2
08:02 54.1 °F 53.0 °F 30.11 in South 4.0 mph 9.0 mph 96 % 0.00 in 128 W/m2
08:07 54.3 °F 53.2 °F 30.11 in South 4.0 mph 9.0 mph 96 % 0.00 in 141 W/m2
08:12 54.7 °F 53.6 °F 30.11 in South 3.0 mph 7.0 mph 96 % 0.00 in 155 W/m2
08:17 55.0 °F 53.9 °F 30.11 in SSE 4.0 mph 7.0 mph 96 % 0.00 in 163 W/m2
08:23 55.2 °F 54.1 °F 30.11 in SSE 4.0 mph 7.0 mph 96 % 0.00 in 179 W/m2
08:28 55.6 °F 54.5 °F 30.11 in SSE 4.0 mph 8.0 mph 96 % 0.00 in 202 W/m2
08:33 55.8 °F 54.3 °F 30.11 in SSE 5.0 mph 8.0 mph 95 % 0.00 in 192 W/m2
08:38 55.8 °F 54.3 °F 30.11 in SSE 4.0 mph 8.0 mph 95 % 0.00 in 162 W/m2
08:43 55.9 °F 54.2 °F 30.11 in SSE 4.0 mph 8.0 mph 94 % 0.00 in 118 W/m2
08:53 55.9 °F 54.2 °F 30.12 in SE 5.0 mph 8.0 mph 94 % 0.00 in 77 W/m2
08:58 55.9 °F 54.2 °F 30.12 in SSE 5.0 mph 10.0 mph 94 % 0.00 in 77 W/m2
09:03 56.1 °F 54.4 °F 30.12 in SSE 4.0 mph 10.0 mph 94 % 0.00 in 81 W/m2
09:08 56.1 °F 54.4 °F 30.12 in SSE 4.0 mph 8.0 mph 94 % 0.00 in 74 W/m2
09:13 56.1 °F 54.1 °F 30.12 in South 4.0 mph 10.0 mph 93 % 0.00 in 65 W/m2
09:18 56.3 °F 54.3 °F 30.12 in South 4.0 mph 10.0 mph 93 % 0.00 in 88 W/m2
09:23 56.5 °F 54.5 °F 30.12 in SSW 4.0 mph 8.0 mph 93 % 0.00 in 104 W/m2
09:28 56.5 °F 54.5 °F 30.12 in SSW 5.0 mph 10.0 mph 93 % 0.00 in 102 W/m2
09:33 56.7 °F 54.4 °F 30.12 in South 6.0 mph 10.0 mph 92 % 0.00 in 111 W/m2
09:38 56.7 °F 54.4 °F 30.12 in South 6.0 mph 10.0 mph 92 % 0.00 in 88 W/m2
09:43 56.8 °F 54.5 °F 30.12 in South 5.0 mph 9.0 mph 92 % 0.00 in 93 W/m2
09:48 56.8 °F 54.5 °F 30.12 in South 4.0 mph 8.0 mph 92 % 0.00 in 135 W/m2
09:53 57.0 °F 54.7 °F 30.12 in SSW 3.0 mph 9.0 mph 92 % 0.00 in 199 W/m2
09:58 57.4 °F 55.1 °F 30.12 in SSW 5.0 mph 9.0 mph 92 % 0.00 in 237 W/m2
10:03 57.6 °F 55.3 °F 30.12 in South 4.0 mph 8.0 mph 92 % 0.00 in 246 W/m2
10:08 57.9 °F 55.6 °F 30.12 in South 4.0 mph 8.0 mph 92 % 0.00 in 355 W/m2
10:13 58.5 °F 55.8 °F 30.12 in South 4.0 mph 8.0 mph 91 % 0.00 in 315 W/m2
10:18 58.8 °F 56.2 °F 30.13 in SSE 5.0 mph 9.0 mph 91 % 0.00 in 429 W/m2
10:23 59.2 °F 56.2 °F 30.13 in SSE 6.0 mph 9.0 mph 90 % 0.00 in 229 W/m2
10:29 59.4 °F 56.1 °F 30.13 in SSE 6.0 mph 9.0 mph 89 % 0.00 in 225 W/m2
10:34 59.5 °F 56.3 °F 30.12 in SSE 5.0 mph 9.0 mph 89 % 0.00 in 172 W/m2
10:39 59.5 °F 56.3 °F 30.12 in SE 5.0 mph 9.0 mph 89 % 0.00 in 218 W/m2
10:44 59.7 °F 56.2 °F 30.12 in SSE 7.0 mph 14.0 mph 88 % 0.00 in 399 W/m2
10:49 59.9 °F 56.3 °F 30.12 in SSE 8.0 mph 14.0 mph 88 % 0.00 in 316 W/m2
10:54 60.1 °F 56.2 °F 30.12 in SSE 7.0 mph 12.0 mph 87 % 0.00 in 306 W/m2
10:59 60.4 °F 56.6 °F 30.12 in SSE 7.0 mph 13.0 mph 87 % 0.00 in 410 W/m2
11:04 60.8 °F 56.9 °F 30.12 in South 7.0 mph 14.0 mph 87 % 0.00 in 555 W/m2
11:09 61.0 °F 56.8 °F 30.12 in South 7.0 mph 14.0 mph 86 % 0.00 in 225 W/m2
11:14 61.0 °F 56.4 °F 30.12 in South 7.0 mph 14.0 mph 85 % 0.00 in 227 W/m2
11:19 60.8 °F 56.3 °F 30.12 in South 7.0 mph 14.0 mph 85 % 0.00 in 195 W/m2
11:24 60.8 °F 56.6 °F 30.12 in SSE 7.0 mph 11.0 mph 86 % 0.00 in 195 W/m2
11:29 60.8 °F 56.3 °F 30.11 in SSE 7.0 mph 11.0 mph 85 % 0.00 in 128 W/m2
11:34 60.6 °F 56.1 °F 30.11 in SSE 7.0 mph 12.0 mph 85 % 0.00 in 102 W/m2
11:39 60.6 °F 56.1 °F 30.11 in SSE 7.0 mph 12.0 mph 85 % 0.00 in 109 W/m2
11:44 60.6 °F 56.4 °F 30.11 in South 5.0 mph 10.0 mph 86 % 0.00 in 114 W/m2
11:49 60.6 °F 56.1 °F 30.11 in South 4.0 mph 11.0 mph 85 % 0.00 in 144 W/m2
11:54 60.6 °F 56.4 °F 30.11 in South 4.0 mph 11.0 mph 86 % 0.00 in 125 W/m2
11:59 60.8 °F 56.6 °F 30.11 in SSE 5.0 mph 9.0 mph 86 % 0.00 in 116 W/m2
12:04 60.8 °F 56.6 °F 30.11 in SE 6.0 mph 9.0 mph 86 % 0.00 in 155 W/m2
12:09 60.8 °F 56.6 °F 30.11 in SE 5.0 mph 8.0 mph 86 % 0.00 in 176 W/m2
12:14 61.0 °F 56.8 °F 30.11 in SE 5.0 mph 9.0 mph 86 % 0.00 in 118 W/m2
12:19 61.0 °F 56.8 °F 30.11 in SE 5.0 mph 9.0 mph 86 % 0.00 in 102 W/m2
12:24 61.0 °F 56.8 °F 30.11 in SE 6.0 mph 10.0 mph 86 % 0.00 in 95 W/m2
12:29 60.8 °F 56.9 °F 30.11 in SE 7.0 mph 10.0 mph 87 % 0.00 in 144 W/m2
12:34 60.8 °F 56.9 °F 30.11 in SSE 6.0 mph 9.0 mph 87 % 0.00 in 100 W/m2
12:39 60.6 °F 56.7 °F 30.11 in SSE 5.0 mph 10.0 mph 87 % 0.00 in 105 W/m2
12:44 60.6 °F 56.7 °F 30.11 in SSE 5.0 mph 10.0 mph 87 % 0.00 in 65 W/m2
12:49 60.6 °F 56.7 °F 30.11 in SE 5.0 mph 7.0 mph 87 % 0.00 in 74 W/m2
12:54 60.6 °F 56.7 °F 30.11 in SE 5.0 mph 7.0 mph 87 % 0.00 in 130 W/m2
12:59 60.8 °F 56.9 °F 30.11 in SE 4.0 mph 7.0 mph 87 % 0.00 in 67 W/m2
13:04 61.0 °F 57.4 °F 30.11 in SE 4.0 mph 11.0 mph 88 % 0.00 in 56 W/m2
13:09 60.8 °F 56.9 °F 30.11 in SE 5.0 mph 11.0 mph 87 % 0.00 in 69 W/m2
13:14 60.8 °F 56.9 °F 30.11 in SSE 5.0 mph 9.0 mph 87 % 0.00 in 148 W/m2
13:19 61.0 °F 57.1 °F 30.11 in SSE 4.0 mph 10.0 mph 87 % 0.00 in 62 W/m2
13:24 61.0 °F 57.1 °F 30.11 in SE 6.0 mph 12.0 mph 87 % 0.00 in 63 W/m2
13:29 61.0 °F 57.1 °F 30.11 in SE 8.0 mph 12.0 mph 87 % 0.00 in 269 W/m2
13:34 61.0 °F 57.4 °F 30.11 in SSE 7.0 mph 12.0 mph 88 % 0.00 in 144 W/m2
13:39 61.2 °F 57.3 °F 30.11 in SSE 7.0 mph 12.0 mph 87 % 0.00 in 70 W/m2
13:44 61.2 °F 57.3 °F 30.11 in SSE 8.0 mph 12.0 mph 87 % 0.00 in 53 W/m2
13:49 61.0 °F 57.1 °F 30.11 in SSE 9.0 mph 14.0 mph 87 % 0.00 in 102 W/m2
13:54 61.0 °F 57.1 °F 30.11 in SSE 8.0 mph 14.0 mph 87 % 0.00 in 91 W/m2
13:59 61.0 °F 57.4 °F 30.11 in SSE 7.0 mph 12.0 mph 88 % 0.00 in 120 W/m2
14:04 61.0 °F 57.4 °F 30.11 in SSE 6.0 mph 12.0 mph 88 % 0.00 in 123 W/m2
14:09 61.0 °F 57.4 °F 30.11 in SSE 6.0 mph 11.0 mph 88 % 0.00 in 60 W/m2
14:14 61.0 °F 57.4 °F 30.11 in SSE 6.0 mph 10.0 mph 88 % 0.00 in 72 W/m2
14:20 61.0 °F 57.4 °F 30.11 in SSE 6.0 mph 11.0 mph 88 % 0.00 in 134 W/m2
14:25 61.0 °F 57.4 °F 30.11 in SSE 6.0 mph 11.0 mph 88 % 0.00 in 105 W/m2
14:30 61.0 °F 57.4 °F 30.11 in SSE 5.0 mph 9.0 mph 88 % 0.00 in 91 W/m2
14:35 61.0 °F 57.4 °F 30.11 in SSE 6.0 mph 10.0 mph 88 % 0.00 in 70 W/m2
14:40 61.0 °F 57.4 °F 30.11 in SSE 6.0 mph 10.0 mph 88 % 0.00 in 74 W/m2
14:45 61.0 °F 57.1 °F 30.11 in SSE 5.0 mph 10.0 mph 87 % 0.00 in 65 W/m2
14:50 61.2 °F 57.3 °F 30.11 in SSE 4.0 mph 10.0 mph 87 % 0.00 in 81 W/m2
14:55 61.2 °F 57.3 °F 30.11 in SSE 4.0 mph 7.0 mph 87 % 0.00 in 79 W/m2
15:00 61.2 °F 57.3 °F 30.11 in SSE 4.0 mph 8.0 mph 87 % 0.00 in 88 W/m2
15:05 61.2 °F 56.9 °F 30.10 in SSW 6.0 mph 13.0 mph 86 % 0.00 in 83 W/m2
15:10 61.2 °F 56.9 °F 30.10 in SSW 7.0 mph 13.0 mph 86 % 0.00 in 79 W/m2
15:15 61.2 °F 56.9 °F 30.10 in SSW 7.0 mph 12.0 mph 86 % 0.00 in 69 W/m2
15:20 61.2 °F 56.9 °F 30.10 in SSW 7.0 mph 12.0 mph 86 % 0.00 in 58 W/m2
15:30 61.2 °F 57.3 °F 30.10 in South 5.0 mph 9.0 mph 87 % 0.00 in 46 W/m2
15:35 61.2 °F 57.3 °F 30.10 in South 4.0 mph 9.0 mph 87 % 0.00 in 40 W/m2
15:40 61.0 °F 57.1 °F 30.10 in South 4.0 mph 9.0 mph 87 % 0.00 in 54 W/m2
15:45 61.0 °F 57.4 °F 30.10 in South 6.0 mph 11.0 mph 88 % 0.00 in 58 W/m2
15:50 61.0 °F 57.4 °F 30.10 in South 6.0 mph 11.0 mph 88 % 0.00 in 44 W/m2
15:55 60.6 °F 57.4 °F 30.10 in South 6.0 mph 12.0 mph 89 % 0.00 in 54 W/m2
16:00 60.3 °F 57.0 °F 30.09 in SSW 7.0 mph 13.0 mph 89 % 0.00 in 70 W/m2
16:05 60.3 °F 57.3 °F 30.09 in SSW 7.0 mph 12.0 mph 90 % 0.00 in 146 W/m2
16:10 60.3 °F 57.3 °F 30.09 in SSW 5.0 mph 10.0 mph 90 % 0.00 in 186 W/m2
16:15 60.4 °F 57.5 °F 30.09 in South 5.0 mph 9.0 mph 90 % 0.00 in 155 W/m2
16:20 60.4 °F 57.5 °F 30.09 in South 5.0 mph 9.0 mph 90 % 0.00 in 165 W/m2
16:25 60.6 °F 57.7 °F 30.09 in South 5.0 mph 9.0 mph 90 % 0.00 in 188 W/m2
16:30 60.6 °F 57.7 °F 30.09 in SSE 6.0 mph 10.0 mph 90 % 0.00 in 144 W/m2
16:35 61.0 °F 57.7 °F 30.09 in SSE 7.0 mph 11.0 mph 89 % 0.00 in 121 W/m2
16:40 61.2 °F 57.6 °F 30.09 in SSE 7.0 mph 11.0 mph 88 % 0.00 in 120 W/m2
16:45 61.3 °F 57.8 °F 30.09 in South 5.0 mph 9.0 mph 88 % 0.00 in 100 W/m2
16:50 61.3 °F 57.4 °F 30.09 in SSE 5.0 mph 10.0 mph 87 % 0.00 in 77 W/m2
16:55 61.5 °F 57.3 °F 30.09 in SSE 7.0 mph 10.0 mph 86 % 0.00 in 63 W/m2
17:00 61.5 °F 57.3 °F 30.09 in SSE 6.0 mph 10.0 mph 86 % 0.00 in 83 W/m2
17:05 61.7 °F 57.5 °F 30.09 in SE 6.0 mph 10.0 mph 86 % 0.00 in 76 W/m2
17:10 61.7 °F 57.5 °F 30.09 in SSE 5.0 mph 10.0 mph 86 % 0.00 in 63 W/m2
17:15 61.7 °F 57.5 °F 30.09 in SSE 5.0 mph 10.0 mph 86 % 0.00 in 76 W/m2
17:20 61.7 °F 57.5 °F 30.09 in SSE 5.0 mph 10.0 mph 86 % 0.00 in 86 W/m2
17:25 61.7 °F 57.5 °F 30.09 in SSE 5.0 mph 9.0 mph 86 % 0.00 in 54 W/m2
17:30 61.9 °F 57.6 °F 30.09 in SSE 4.0 mph 8.0 mph 86 % 0.00 in 86 W/m2
17:35 61.9 °F 57.6 °F 30.09 in SE 3.0 mph 8.0 mph 86 % 0.00 in 69 W/m2
17:40 61.9 °F 57.3 °F 30.09 in SE 3.0 mph 7.0 mph 85 % 0.00 in 56 W/m2
17:45 61.9 °F 57.3 °F 30.09 in SE 4.0 mph 8.0 mph 85 % 0.00 in 56 W/m2
17:50 61.9 °F 57.3 °F 30.09 in SE 5.0 mph 9.0 mph 85 % 0.00 in 42 W/m2
17:55 61.9 °F 57.3 °F 30.09 in SE 5.0 mph 9.0 mph 85 % 0.00 in 44 W/m2
18:00 61.9 °F 57.0 °F 30.09 in SE 5.0 mph 9.0 mph 84 % 0.00 in 39 W/m2
18:02 61.9 °F 57.0 °F 30.09 in SE 5.0 mph 9.0 mph 84 % 0.00 in 40 W/m2
18:07 61.7 °F 57.1 °F 30.09 in SE 4.0 mph 7.0 mph 85 % 0.00 in 26 W/m2
18:12 61.5 °F 57.0 °F 30.09 in ESE 3.0 mph 7.0 mph 85 % 0.00 in 21 W/m2
18:17 61.5 °F 57.0 °F 30.09 in ESE 2.0 mph 5.0 mph 85 % 0.00 in 19 W/m2
18:22 61.3 °F 57.1 °F 30.09 in ESE 2.0 mph 5.0 mph 86 % 0.00 in 18 W/m2
18:27 61.2 °F 56.9 °F 30.09 in ESE 1.0 mph 5.0 mph 86 % 0.00 in 16 W/m2
18:32 61.0 °F 56.8 °F 30.09 in ESE 1.0 mph 4.0 mph 86 % 0.00 in 12 W/m2
18:42 60.4 °F 56.6 °F 30.09 in ESE 2.0 mph 4.0 mph 87 % 0.00 in 11 W/m2
18:47 60.4 °F 56.6 °F 30.09 in SE 2.0 mph 5.0 mph 87 % 0.00 in 9 W/m2
18:52 60.4 °F 56.6 °F 30.08 in SE 2.0 mph 5.0 mph 87 % 0.00 in 7 W/m2
18:57 60.3 °F 56.4 °F 30.08 in ESE 2.0 mph 4.0 mph 87 % 0.00 in 0 W/m2
19:02 60.3 °F 56.4 °F 30.08 in ESE 2.0 mph 5.0 mph 87 % 0.00 in 0 W/m2
19:04 60.3 °F 56.4 °F 30.08 in ESE 2.0 mph 5.0 mph 87 % 0.00 in 0 W/m2
19:09 60.1 °F 56.2 °F 30.08 in ESE 2.0 mph 5.0 mph 87 % 0.00 in 0 W/m2
19:14 60.1 °F 56.2 °F 30.08 in ESE 2.0 mph 4.0 mph 87 % 0.00 in 0 W/m2
19:19 59.9 °F 56.0 °F 30.08 in ESE 2.0 mph 5.0 mph 87 % 0.00 in 0 W/m2
19:24 59.7 °F 56.2 °F 30.08 in ESE 2.0 mph 5.0 mph 88 % 0.00 in 0 W/m2
19:29 59.5 °F 56.0 °F 30.08 in ESE 2.0 mph 4.0 mph 88 % 0.00 in 0 W/m2
19:34 59.4 °F 55.8 °F 30.08 in ESE 2.0 mph 4.0 mph 88 % 0.00 in 0 W/m2
19:40 59.4 °F 55.8 °F 30.08 in ESE 1.0 mph 4.0 mph 88 % 0.00 in 0 W/m2
19:44 59.2 °F 55.9 °F 30.08 in ESE 1.0 mph 4.0 mph 89 % 0.00 in 0 W/m2
19:49 59.2 °F 55.9 °F 30.08 in ESE 1.0 mph 5.0 mph 89 % 0.00 in 0 W/m2
19:54 59.2 °F 55.9 °F 30.08 in ESE 1.0 mph 6.0 mph 89 % 0.00 in 0 W/m2
20:00 59.0 °F 55.8 °F 30.08 in ESE 1.0 mph 6.0 mph 89 % 0.00 in 0 W/m2
20:04 59.0 °F 55.8 °F 30.08 in ESE 2.0 mph 6.0 mph 89 % 0.00 in 0 W/m2
20:10 58.8 °F 55.6 °F 30.08 in ESE 2.0 mph 6.0 mph 89 % 0.00 in 0 W/m2
20:15 58.8 °F 55.6 °F 30.08 in ESE 2.0 mph 6.0 mph 89 % 0.00 in 0 W/m2
20:20 58.6 °F 55.4 °F 30.09 in ESE 2.0 mph 6.0 mph 89 % 0.00 in 0 W/m2
20:25 58.6 °F 55.4 °F 30.09 in ESE 2.0 mph 8.0 mph 89 % 0.00 in 0 W/m2
20:30 58.5 °F 55.2 °F 30.09 in SE 2.0 mph 8.0 mph 89 % 0.00 in 0 W/m2
20:35 58.5 °F 55.2 °F 30.09 in SE 2.0 mph 6.0 mph 89 % 0.00 in 0 W/m2
20:40 58.5 °F 55.2 °F 30.08 in SE 4.0 mph 8.0 mph 89 % 0.00 in 0 W/m2
20:45 58.5 °F 54.9 °F 30.09 in SE 5.0 mph 8.0 mph 88 % 0.00 in 0 W/m2
20:50 58.5 °F 54.9 °F 30.09 in SSE 5.0 mph 8.0 mph 88 % 0.00 in 0 W/m2
20:55 58.5 °F 54.9 °F 30.09 in SSE 5.0 mph 8.0 mph 88 % 0.00 in 0 W/m2
21:00 58.6 °F 54.8 °F 30.09 in SE 5.0 mph 8.0 mph 87 % 0.00 in 0 W/m2
21:05 58.6 °F 54.8 °F 30.09 in SE 4.0 mph 8.0 mph 87 % 0.00 in 0 W/m2
21:10 58.5 °F 54.6 °F 30.09 in SE 3.0 mph 9.0 mph 87 % 0.00 in 0 W/m2
21:15 58.5 °F 54.6 °F 30.09 in SE 3.0 mph 9.0 mph 87 % 0.00 in 0 W/m2
21:20 58.5 °F 54.6 °F 30.09 in SE 2.0 mph 7.0 mph 87 % 0.00 in 0 W/m2
21:25 58.3 °F 54.4 °F 30.09 in SSE 2.0 mph 7.0 mph 87 % 0.00 in 0 W/m2
21:30 58.3 °F 54.1 °F 30.09 in SSE 3.0 mph 9.0 mph 86 % 0.00 in 0 W/m2
21:35 58.3 °F 54.1 °F 30.09 in South 5.0 mph 10.0 mph 86 % 0.00 in 0 W/m2
21:40 58.3 °F 54.1 °F 30.09 in SSE 6.0 mph 11.0 mph 86 % 0.00 in 0 W/m2
21:45 58.3 °F 54.1 °F 30.09 in SE 7.0 mph 11.0 mph 86 % 0.00 in 0 W/m2
21:50 58.1 °F 53.9 °F 30.09 in SSE 6.0 mph 11.0 mph 86 % 0.00 in 0 W/m2
21:55 58.1 °F 53.6 °F 30.09 in SSE 5.0 mph 9.0 mph 85 % 0.00 in 0 W/m2
22:00 57.9 °F 53.4 °F 30.09 in South 5.0 mph 10.0 mph 85 % 0.00 in 0 W/m2
22:05 57.9 °F 53.4 °F 30.09 in SSE 6.0 mph 11.0 mph 85 % 0.00 in 0 W/m2
22:10 57.9 °F 53.4 °F 30.09 in SSE 6.0 mph 11.0 mph 85 % 0.00 in 0 W/m2
22:15 57.9 °F 53.1 °F 30.10 in SSE 6.0 mph 12.0 mph 84 % 0.00 in 0 W/m2
22:20 57.7 °F 52.9 °F 30.10 in SE 6.0 mph 12.0 mph 84 % 0.00 in 0 W/m2
22:25 57.7 °F 52.9 °F 30.10 in SSE 6.0 mph 9.0 mph 84 % 0.00 in 0 W/m2
22:31 57.7 °F 52.9 °F 30.10 in SSE 6.0 mph 9.0 mph 84 % 0.00 in 0 W/m2
22:36 57.6 °F 52.8 °F 30.10 in SSE 7.0 mph 13.0 mph 84 % 0.00 in 0 W/m2
22:41 57.7 °F 52.6 °F 30.10 in SSE 7.0 mph 13.0 mph 83 % 0.00 in 0 W/m2
22:46 57.6 °F 52.4 °F 30.10 in SSE 5.0 mph 9.0 mph 83 % 0.00 in 0 W/m2
22:51 57.6 °F 52.4 °F 30.10 in South 5.0 mph 11.0 mph 83 % 0.00 in 0 W/m2
22:56 57.6 °F 52.4 °F 30.10 in South 6.0 mph 11.0 mph 83 % 0.00 in 0 W/m2
23:01 57.6 °F 52.4 °F 30.10 in South 6.0 mph 10.0 mph 83 % 0.00 in 0 W/m2
23:06 57.6 °F 52.4 °F 30.10 in South 6.0 mph 11.0 mph 83 % 0.00 in 0 W/m2
23:11 57.6 °F 52.1 °F 30.10 in South 7.0 mph 13.0 mph 82 % 0.00 in 0 W/m2
23:16 57.6 °F 52.1 °F 30.10 in South 6.0 mph 13.0 mph 82 % 0.00 in 0 W/m2
23:21 57.6 °F 52.1 °F 30.10 in South 5.0 mph 10.0 mph 82 % 0.00 in 0 W/m2
23:26 57.6 °F 52.1 °F 30.10 in South 4.0 mph 10.0 mph 82 % 0.00 in 0 W/m2
23:31 57.4 °F 51.9 °F 30.10 in South 4.0 mph 10.0 mph 82 % 0.00 in 0 W/m2
23:36 57.2 °F 51.8 °F 30.10 in South 3.0 mph 8.0 mph 82 % 0.00 in 0 W/m2
23:41 57.2 °F 51.8 °F 30.10 in South 3.0 mph 8.0 mph 82 % 0.00 in 0 W/m2
23:47 57.0 °F 51.6 °F 30.10 in South 5.0 mph 9.0 mph 82 % 0.00 in 0 W/m2
23:52 57.0 °F 51.6 °F 30.10 in SSE 5.0 mph 10.0 mph 82 % 0.00 in 0 W/m2
23:57 57.0 °F 51.6 °F 30.10 in SSE 5.0 mph 10.0 mph 82 % 0.00 in 0 W/m2
Delerius-Weather
Compliments of Weather Underground - 2.25 mb

Data updates at regular intervals.